Map

Track Data

SID SEASON NUMBER BASIN SUBBASIN NAME ISO_TIME NATURE LAT LON WMO_WIND WMO_PRES WMO_AGENCY TRACK_TYPE DIST2LAND LANDFALL IFLAG USA_AGENCY USA_ATCF_ID USA_LAT USA_LON USA_RECORD USA_STATUS USA_WIND USA_PRES USA_SSHS USA_R34_NE USA_R34_SE USA_R34_SW USA_R34_NW USA_R50_NE USA_R50_SE USA_R50_SW USA_R50_NW USA_R64_NE USA_R64_SE USA_R64_SW USA_R64_NW USA_POCI USA_ROCI USA_RMW USA_EYE TOKYO_LAT TOKYO_LON TOKYO_GRADE TOKYO_WIND TOKYO_PRES TOKYO_R50_DIR TOKYO_R50_LONG TOKYO_R50_SHORT TOKYO_R30_DIR TOKYO_R30_LONG TOKYO_R30_SHORT TOKYO_LAND CMA_LAT CMA_LON CMA_CAT CMA_WIND CMA_PRES HKO_LAT HKO_LON HKO_CAT HKO_WIND HKO_PRES NEWDELHI_LAT NEWDELHI_LON NEWDELHI_GRADE NEWDELHI_WIND NEWDELHI_PRES NEWDELHI_CI NEWDELHI_DP NEWDELHI_POCI REUNION_LAT REUNION_LON REUNION_TYPE REUNION_WIND REUNION_PRES REUNION_TNUM REUNION_CI REUNION_RMW REUNION_R34_NE REUNION_R34_SE REUNION_R34_SW REUNION_R34_NW REUNION_R50_NE REUNION_R50_SE REUNION_R50_SW REUNION_R50_NW REUNION_R64_NE REUNION_R64_SE REUNION_R64_SW REUNION_R64_NW BOM_LAT BOM_LON BOM_TYPE BOM_WIND BOM_PRES BOM_TNUM BOM_CI BOM_RMW BOM_R34_NE BOM_R34_SE BOM_R34_SW BOM_R34_NW BOM_R50_NE BOM_R50_SE BOM_R50_SW BOM_R50_NW BOM_R64_NE BOM_R64_SE BOM_R64_SW BOM_R64_NW BOM_ROCI BOM_POCI BOM_EYE BOM_POS_METHOD BOM_PRES_METHOD NADI_LAT NADI_LON NADI_CAT NADI_WIND NADI_PRES WELLINGTON_LAT WELLINGTON_LON WELLINGTON_WIND WELLINGTON_PRES DS824_LAT DS824_LON DS824_STAGE DS824_WIND DS824_PRES TD9636_LAT TD9636_LON TD9636_STAGE TD9636_WIND TD9636_PRES TD9635_LAT TD9635_LON TD9635_WIND TD9635_PRES TD9635_ROCI NEUMANN_LAT NEUMANN_LON NEUMANN_CLASS NEUMANN_WIND NEUMANN_PRES MLC_LAT MLC_LON MLC_CLASS MLC_WIND MLC_PRES USA_GUST BOM_GUST BOM_GUST_PER REUNION_GUST REUNION_GUST_PER USA_SEAHGT USA_SEARAD_NE USA_SEARAD_SE USA_SEARAD_SW USA_SEARAD_NW STORM_SPEED STORM_DIR
1907032S13424 1907 8 SI MM NOT_NAMED 1907-01-31 18:00:00 NR -13.3000 63.6000 main 986 924 __________O___ -1 -13.3000 63.6000 7 11 225
1907032S13424 1907 8 SI MM NOT_NAMED 1907-01-31 21:00:00 NR -13.6818 63.2042 main 924 871 __________P___ -1 -13.6818 63.2042 7 11 225
1907032S13424 1907 8 SI MM NOT_NAMED 1907-02-01 00:00:00 NR -14.0607 62.8162 main 862 816 __________P___ -1 -14.0607 62.8162 7 11 224
1907032S13424 1907 8 SI MM NOT_NAMED 1907-02-01 03:00:00 NR -14.4341 62.4450 main 809 754 __________P___ -1 -14.4341 62.4450 7 10 223
1907032S13424 1907 8 SI MM NOT_NAMED 1907-02-01 06:00:00 NR -14.8000 62.1000 main 754 708 __________O___ -1 -14.8000 62.1000 7 10 221
1907032S13424 1907 8 SI MM NOT_NAMED 1907-02-01 09:00:00 NR -15.1569 61.7877 main 699 653 __________P___ -1 -15.1569 61.7877 7 9 219
1907032S13424 1907 8 SI MM NOT_NAMED 1907-02-01 12:00:00 NR -15.5072 61.5045 main 653 613 __________P___ -1 -15.5072 61.5045 7 9 217
1907032S13424 1907 8 SI MM NOT_NAMED 1907-02-01 15:00:00 NR -15.8539 61.2440 main 598 558 __________P___ -1 -15.8539 61.2440 7 9 215
1907032S13424 1907 8 SI MM NOT_NAMED 1907-02-01 18:00:00 NR -16.2000 61.0000 main 558 518 __________O___ -1 -16.2000 61.0000 7 8 214
1907032S13424 1907 8 SI MM NOT_NAMED 1907-02-01 21:00:00 NR -16.5377 60.7562 main 518 464 __________P___ -1 -16.5377 60.7562 7 8 214
1907032S13424 1907 8 SI MM NOT_NAMED 1907-02-02 00:00:00 NR -16.8774 60.5269 main 464 424 __________P___ -1 -16.8774 60.5269 7 8 212
1907032S13424 1907 8 SI MM NOT_NAMED 1907-02-02 03:00:00 NR -17.2283 60.3093 main 424 376 __________P___ -1 -17.2283 60.3093 7 8 209
1907032S13424 1907 8 SI MM NOT_NAMED 1907-02-02 06:00:00 NR -17.6000 60.1000 main 376 329 __________O___ -1 -17.6000 60.1000 7 9 208
1907032S13424 1907 8 SI MM NOT_NAMED 1907-02-02 09:00:00 NR -18.0075 59.8766 main 329 283 __________P___ -1 -18.0075 59.8766 7 9 206
1907032S13424 1907 8 SI MM NOT_NAMED 1907-02-02 12:00:00 NR -18.4350 59.6627 main 283 238 __________P___ -1 -18.4350 59.6627 7 10 204
1907032S13424 1907 8 SI MM NOT_NAMED 1907-02-02 15:00:00 NR -18.8700 59.4673 main 231 189 __________P___ -1 -18.8700 59.4673 7 9 202
1907032S13424 1907 8 SI MM NOT_NAMED 1907-02-02 18:00:00 NR -19.3000 59.3000 main 189 160 __________O___ -1 -19.3000 59.3000 7 9 200
1907032S13424 1907 8 SI MM NOT_NAMED 1907-02-02 21:00:00 NR -19.6868 59.1508 main 160 129 __________P___ -1 -19.6868 59.1508 7 8 198
1907032S13424 1907 8 SI MM NOT_NAMED 1907-02-03 00:00:00 NR -20.0699 59.0324 main 127 125 __________P___ -1 -20.0699 59.0324 7 8 194
1907032S13424 1907 8 SI MM NOT_NAMED 1907-02-03 03:00:00 NR -20.4681 58.9479 main 116 116 __________P___ -1 -20.4681 58.9479 7 8 188
1907032S13424 1907 8 SI MM NOT_NAMED 1907-02-03 06:00:00 NR -20.9000 58.9000 main 132 132 __________O___ -1 -20.9000 58.9000 7 9 184
1907032S13424 1907 8 SI MM NOT_NAMED 1907-02-03 09:00:00 NR -21.4012 58.8807 main 160 160 __________P___ -1 -21.4012 58.8807 7 10 0
1907032S13424 1907 8 SI MM NOT_NAMED 1907-02-03 12:00:00 NR -21.9350 58.8972 main 199 199 __________P___ -1 -21.9350 58.8972 7 11 177
1907032S13424 1907 8 SI MM NOT_NAMED 1907-02-03 15:00:00 NR -22.4762 58.9401 main 255 255 __________P___ -1 -22.4762 58.9401 7 11 175
1907032S13424 1907 8 SI MM NOT_NAMED 1907-02-03 18:00:00 NR -23.0000 59.0000 main 310 310 __________O___ -1 -23.0000 59.0000 7 10 175
1907032S13424 1907 8 SI MM NOT_NAMED 1907-02-03 21:00:00 NR -23.4429 59.0253 main 350 350 __________P___ -1 -23.4429 59.0253 7 9 176
1907032S13424 1907 8 SI MM NOT_NAMED 1907-02-04 00:00:00 NR -23.8696 59.0696 main 406 406 __________P___ -1 -23.8696 59.0696 7 9 172
1907032S13424 1907 8 SI MM NOT_NAMED 1907-02-04 03:00:00 NR -24.3115 59.1540 main 451 451 __________P___ -1 -24.3115 59.1540 7 10 167
1907032S13424 1907 8 SI MM NOT_NAMED 1907-02-04 06:00:00 NR -24.8000 59.3000 main 507 507 __________O___ -1 -24.8000 59.3000 7 12 163
1907032S13424 1907 8 SI MM NOT_NAMED 1907-02-04 09:00:00 NR -25.4112 59.5180 main 577 577 __________P___ -1 -25.4112 59.5180 7 13 160
1907032S13424 1907 8 SI MM NOT_NAMED 1907-02-04 12:00:00 NR -26.0650 59.8010 main 661 661 __________P___ -1 -26.0650 59.8010 7 14 157
1907032S13424 1907 8 SI MM NOT_NAMED 1907-02-04 15:00:00 NR -26.7112 60.1338 main 734 734 __________P___ -1 -26.7112 60.1338 7 14 153
1907032S13424 1907 8 SI MM NOT_NAMED 1907-02-04 18:00:00 NR -27.3000 60.5000 main 811 811 __________O___ -1 -27.3000 60.5000 7 13 148
1907032S13424 1907 8 SI MM NOT_NAMED 1907-02-04 21:00:00 NR -27.7944 60.8847 main 877 877 __________P___ -1 -27.7944 60.8847 7 11 143
1907032S13424 1907 8 SI MM NOT_NAMED 1907-02-05 00:00:00 NR -28.2083 61.2820 main 934 934 __________P___ -1 -28.2083 61.2820 7 11 138
1907032S13424 1907 8 SI MM NOT_NAMED 1907-02-05 03:00:00 NR -28.5680 61.6882 main 991 991 __________P___ -1 -28.5680 61.6882 7 10 134
1907032S13424 1907 8 SI MM NOT_NAMED 1907-02-05 06:00:00 NR -28.9000 62.1000 main 1038 __________O___ -1 -28.9000 62.1000 7 10 133

About IBTrACS Database

This database is a web-friendly format of International Best Track Archive for Climate Stewardship (IBTrACS), a global best track data archive curated by NOAA dating back to 1842.

Updated: 2021-12-01